sensor_id;sensor_type;location;lat;lon;timestamp;P1;durP1;ratioP1;P2;durP2;ratioP2
12958;SDS011;6544;51.666;6.634;2023-05-07T00:00:40;9.68;;;6.57;;
12958;SDS011;6544;51.666;6.634;2023-05-07T00:03:08;8.00;;;6.78;;
12958;SDS011;6544;51.666;6.634;2023-05-07T00:05:36;9.18;;;7.32;;
12958;SDS011;6544;51.666;6.634;2023-05-07T00:08:04;11.02;;;7.22;;
12958;SDS011;6544;51.666;6.634;2023-05-07T00:10:31;7.65;;;6.75;;
12958;SDS011;6544;51.666;6.634;2023-05-07T00:12:58;7.15;;;5.85;;
12958;SDS011;6544;51.666;6.634;2023-05-07T00:15:25;8.43;;;6.50;;
12958;SDS011;6544;51.666;6.634;2023-05-07T00:17:53;8.63;;;7.00;;
12958;SDS011;6544;51.666;6.634;2023-05-07T00:20:22;7.72;;;6.93;;
12958;SDS011;6544;51.666;6.634;2023-05-07T00:22:49;8.05;;;7.07;;
12958;SDS011;6544;51.666;6.634;2023-05-07T00:25:16;8.40;;;7.60;;
12958;SDS011;6544;51.666;6.634;2023-05-07T00:27:44;7.30;;;6.60;;
12958;SDS011;6544;51.666;6.634;2023-05-07T00:30:11;7.82;;;6.72;;
12958;SDS011;6544;51.666;6.634;2023-05-07T00:32:39;7.90;;;6.90;;
12958;SDS011;6544;51.666;6.634;2023-05-07T00:35:08;8.15;;;7.05;;
12958;SDS011;6544;51.666;6.634;2023-05-07T00:37:35;7.85;;;7.15;;
12958;SDS011;6544;51.666;6.634;2023-05-07T00:40:02;8.52;;;7.38;;
12958;SDS011;6544;51.666;6.634;2023-05-07T00:42:32;10.90;;;7.28;;
12958;SDS011;6544;51.666;6.634;2023-05-07T00:44:59;8.30;;;7.38;;
12958;SDS011;6544;51.666;6.634;2023-05-07T00:47:26;7.70;;;6.90;;
12958;SDS011;6544;51.666;6.634;2023-05-07T00:49:53;7.25;;;6.55;;
12958;SDS011;6544;51.666;6.634;2023-05-07T00:52:21;8.38;;;6.80;;
12958;SDS011;6544;51.666;6.634;2023-05-07T00:54:52;10.25;;;7.13;;
12958;SDS011;6544;51.666;6.634;2023-05-07T00:57:20;7.85;;;7.15;;
12958;SDS011;6544;51.666;6.634;2023-05-07T00:59:48;7.03;;;6.32;;
12958;SDS011;6544;51.666;6.634;2023-05-07T01:02:15;7.30;;;6.60;;
12958;SDS011;6544;51.666;6.634;2023-05-07T01:04:42;8.38;;;6.57;;
12958;SDS011;6544;51.666;6.634;2023-05-07T01:07:09;7.40;;;6.70;;
12958;SDS011;6544;51.666;6.634;2023-05-07T01:09:38;9.35;;;7.57;;
12958;SDS011;6544;51.666;6.634;2023-05-07T01:12:06;7.15;;;6.45;;
12958;SDS011;6544;51.666;6.634;2023-05-07T01:14:33;12.40;;;7.68;;
12958;SDS011;6544;51.666;6.634;2023-05-07T01:17:01;8.07;;;6.80;;
12958;SDS011;6544;51.666;6.634;2023-05-07T01:19:28;9.32;;;7.63;;
12958;SDS011;6544;51.666;6.634;2023-05-07T01:21:57;8.43;;;7.50;;
12958;SDS011;6544;51.666;6.634;2023-05-07T01:24:30;9.82;;;8.35;;
12958;SDS011;6544;51.666;6.634;2023-05-07T01:26:58;9.00;;;8.10;;
12958;SDS011;6544;51.666;6.634;2023-05-07T01:29:26;10.07;;;8.00;;
12958;SDS011;6544;51.666;6.634;2023-05-07T01:31:53;8.75;;;7.85;;
12958;SDS011;6544;51.666;6.634;2023-05-07T01:34:20;9.50;;;8.52;;
12958;SDS011;6544;51.666;6.634;2023-05-07T01:36:48;9.52;;;8.55;;
12958;SDS011;6544;51.666;6.634;2023-05-07T01:39:15;10.15;;;8.90;;
12958;SDS011;6544;51.666;6.634;2023-05-07T01:41:44;9.20;;;8.27;;
12958;SDS011;6544;51.666;6.634;2023-05-07T01:44:11;11.60;;;9.13;;
12958;SDS011;6544;51.666;6.634;2023-05-07T01:46:39;10.57;;;9.18;;
12958;SDS011;6544;51.666;6.634;2023-05-07T01:49:06;10.30;;;9.23;;
12958;SDS011;6544;51.666;6.634;2023-05-07T01:51:33;10.57;;;9.52;;
12958;SDS011;6544;51.666;6.634;2023-05-07T01:54:01;9.82;;;8.82;;
12958;SDS011;6544;51.666;6.634;2023-05-07T01:56:28;11.18;;;9.00;;
12958;SDS011;6544;51.666;6.634;2023-05-07T01:58:56;10.43;;;8.95;;
12958;SDS011;6544;51.666;6.634;2023-05-07T02:01:23;9.88;;;8.80;;
12958;SDS011;6544;51.666;6.634;2023-05-07T02:03:50;10.02;;;9.02;;
12958;SDS011;6544;51.666;6.634;2023-05-07T02:06:17;10.10;;;9.10;;
12958;SDS011;6544;51.666;6.634;2023-05-07T02:08:44;10.73;;;9.38;;
12958;SDS011;6544;51.666;6.634;2023-05-07T02:11:11;10.52;;;9.48;;
12958;SDS011;6544;51.666;6.634;2023-05-07T02:13:38;11.27;;;9.43;;
12958;SDS011;6544;51.666;6.634;2023-05-07T02:16:06;11.27;;;9.48;;
12958;SDS011;6544;51.666;6.634;2023-05-07T02:18:33;10.40;;;9.35;;
12958;SDS011;6544;51.666;6.634;2023-05-07T02:21:00;10.43;;;9.30;;
12958;SDS011;6544;51.666;6.634;2023-05-07T02:23:27;12.48;;;10.02;;
12958;SDS011;6544;51.666;6.634;2023-05-07T02:25:54;11.85;;;10.60;;
12958;SDS011;6544;51.666;6.634;2023-05-07T02:28:21;12.20;;;10.45;;
12958;SDS011;6544;51.666;6.634;2023-05-07T02:30:48;12.52;;;10.90;;
12958;SDS011;6544;51.666;6.634;2023-05-07T02:33:16;13.40;;;11.57;;
12958;SDS011;6544;51.666;6.634;2023-05-07T02:35:43;12.30;;;11.00;;
12958;SDS011;6544;51.666;6.634;2023-05-07T02:38:10;12.48;;;11.18;;
12958;SDS011;6544;51.666;6.634;2023-05-07T02:40:37;13.30;;;11.93;;
12958;SDS011;6544;51.666;6.634;2023-05-07T02:43:04;12.70;;;11.38;;
12958;SDS011;6544;51.666;6.634;2023-05-07T02:45:31;14.02;;;12.27;;
12958;SDS011;6544;51.666;6.634;2023-05-07T02:47:58;13.05;;;11.85;;
12958;SDS011;6544;51.666;6.634;2023-05-07T02:50:27;13.90;;;12.32;;
12958;SDS011;6544;51.666;6.634;2023-05-07T02:52:54;14.55;;;13.05;;
12958;SDS011;6544;51.666;6.634;2023-05-07T02:55:21;14.43;;;12.52;;
12958;SDS011;6544;51.666;6.634;2023-05-07T02:57:48;14.18;;;12.07;;
12958;SDS011;6544;51.666;6.634;2023-05-07T03:00:16;14.82;;;12.50;;
12958;SDS011;6544;51.666;6.634;2023-05-07T03:02:43;12.75;;;11.35;;
12958;SDS011;6544;51.666;6.634;2023-05-07T03:05:10;13.52;;;12.13;;
12958;SDS011;6544;51.666;6.634;2023-05-07T03:07:40;13.63;;;12.25;;
12958;SDS011;6544;51.666;6.634;2023-05-07T03:10:10;15.38;;;12.55;;
12958;SDS011;6544;51.666;6.634;2023-05-07T03:12:37;12.73;;;11.43;;
12958;SDS011;6544;51.666;6.634;2023-05-07T03:15:04;12.23;;;10.95;;
12958;SDS011;6544;51.666;6.634;2023-05-07T03:17:32;13.20;;;11.68;;
12958;SDS011;6544;51.666;6.634;2023-05-07T03:19:58;14.30;;;12.80;;
12958;SDS011;6544;51.666;6.634;2023-05-07T03:22:25;13.52;;;12.13;;
12958;SDS011;6544;51.666;6.634;2023-05-07T03:24:53;15.35;;;13.30;;
12958;SDS011;6544;51.666;6.634;2023-05-07T03:27:20;14.23;;;12.82;;
12958;SDS011;6544;51.666;6.634;2023-05-07T03:29:47;14.10;;;12.23;;
12958;SDS011;6544;51.666;6.634;2023-05-07T03:32:14;13.75;;;12.35;;
12958;SDS011;6544;51.666;6.634;2023-05-07T03:34:41;14.02;;;12.35;;
12958;SDS011;6544;51.666;6.634;2023-05-07T03:37:08;12.90;;;11.70;;
12958;SDS011;6544;51.666;6.634;2023-05-07T03:39:35;13.73;;;12.40;;
12958;SDS011;6544;51.666;6.634;2023-05-07T03:42:03;13.40;;;11.57;;
12958;SDS011;6544;51.666;6.634;2023-05-07T03:44:30;13.00;;;11.65;;
12958;SDS011;6544;51.666;6.634;2023-05-07T03:46:57;13.45;;;12.15;;
12958;SDS011;6544;51.666;6.634;2023-05-07T03:49:24;14.13;;;12.63;;
12958;SDS011;6544;51.666;6.634;2023-05-07T03:51:50;13.77;;;12.48;;
12958;SDS011;6544;51.666;6.634;2023-05-07T03:54:17;13.77;;;12.38;;
12958;SDS011;6544;51.666;6.634;2023-05-07T03:56:44;13.32;;;11.90;;
12958;SDS011;6544;51.666;6.634;2023-05-07T03:59:13;14.75;;;12.40;;
12958;SDS011;6544;51.666;6.634;2023-05-07T04:01:40;12.32;;;11.13;;
12958;SDS011;6544;51.666;6.634;2023-05-07T04:04:07;13.80;;;12.32;;
12958;SDS011;6544;51.666;6.634;2023-05-07T04:06:33;13.25;;;12.00;;
12958;SDS011;6544;51.666;6.634;2023-05-07T04:09:00;13.10;;;11.85;;
12958;SDS011;6544;51.666;6.634;2023-05-07T04:11:27;15.30;;;13.05;;
12958;SDS011;6544;51.666;6.634;2023-05-07T04:13:54;15.07;;;12.85;;
12958;SDS011;6544;51.666;6.634;2023-05-07T04:16:22;16.77;;;12.52;;
12958;SDS011;6544;51.666;6.634;2023-05-07T04:18:49;14.20;;;12.73;;
12958;SDS011;6544;51.666;6.634;2023-05-07T04:21:16;13.68;;;11.85;;
12958;SDS011;6544;51.666;6.634;2023-05-07T04:23:44;14.30;;;12.13;;
12958;SDS011;6544;51.666;6.634;2023-05-07T04:26:11;14.27;;;12.88;;
12958;SDS011;6544;51.666;6.634;2023-05-07T04:28:38;14.82;;;13.32;;
12958;SDS011;6544;51.666;6.634;2023-05-07T04:31:05;14.02;;;12.45;;
12958;SDS011;6544;51.666;6.634;2023-05-07T04:33:34;14.20;;;12.82;;
12958;SDS011;6544;51.666;6.634;2023-05-07T04:36:01;13.65;;;12.30;;
12958;SDS011;6544;51.666;6.634;2023-05-07T04:38:29;14.90;;;13.35;;
12958;SDS011;6544;51.666;6.634;2023-05-07T04:40:56;14.27;;;12.80;;
12958;SDS011;6544;51.666;6.634;2023-05-07T04:43:23;14.73;;;12.90;;
12958;SDS011;6544;51.666;6.634;2023-05-07T04:45:50;15.15;;;13.60;;
12958;SDS011;6544;51.666;6.634;2023-05-07T04:48:17;15.18;;;12.88;;
12958;SDS011;6544;51.666;6.634;2023-05-07T04:50:48;16.70;;;13.02;;
12958;SDS011;6544;51.666;6.634;2023-05-07T04:53:15;15.43;;;13.80;;
12958;SDS011;6544;51.666;6.634;2023-05-07T04:55:43;14.70;;;13.18;;
12958;SDS011;6544;51.666;6.634;2023-05-07T04:58:10;14.93;;;13.38;;
12958;SDS011;6544;51.666;6.634;2023-05-07T05:00:37;14.75;;;13.15;;
12958;SDS011;6544;51.666;6.634;2023-05-07T05:03:03;15.73;;;13.73;;
12958;SDS011;6544;51.666;6.634;2023-05-07T05:05:30;15.43;;;13.68;;
12958;SDS011;6544;51.666;6.634;2023-05-07T05:07:59;16.00;;;13.38;;
12958;SDS011;6544;51.666;6.634;2023-05-07T05:10:25;15.15;;;13.45;;
12958;SDS011;6544;51.666;6.634;2023-05-07T05:12:52;16.65;;;13.02;;
12958;SDS011;6544;51.666;6.634;2023-05-07T05:15:19;14.30;;;12.77;;
12958;SDS011;6544;51.666;6.634;2023-05-07T05:17:46;13.30;;;11.93;;
12958;SDS011;6544;51.666;6.634;2023-05-07T05:20:13;14.20;;;12.80;;
12958;SDS011;6544;51.666;6.634;2023-05-07T05:22:40;14.50;;;13.00;;
12958;SDS011;6544;51.666;6.634;2023-05-07T05:25:09;14.23;;;12.75;;
12958;SDS011;6544;51.666;6.634;2023-05-07T05:27:35;13.73;;;12.43;;
12958;SDS011;6544;51.666;6.634;2023-05-07T05:32:30;14.35;;;12.85;;
12958;SDS011;6544;51.666;6.634;2023-05-07T05:34:57;14.95;;;13.05;;
12958;SDS011;6544;51.666;6.634;2023-05-07T05:37:25;13.95;;;12.55;;
12958;SDS011;6544;51.666;6.634;2023-05-07T05:39:51;14.43;;;12.75;;
12958;SDS011;6544;51.666;6.634;2023-05-07T05:42:21;14.60;;;12.27;;
12958;SDS011;6544;51.666;6.634;2023-05-07T05:44:48;16.00;;;12.32;;
12958;SDS011;6544;51.666;6.634;2023-05-07T05:47:16;17.75;;;12.40;;
12958;SDS011;6544;51.666;6.634;2023-05-07T05:49:43;13.95;;;11.90;;
12958;SDS011;6544;51.666;6.634;2023-05-07T05:52:11;12.90;;;11.60;;
12958;SDS011;6544;51.666;6.634;2023-05-07T05:54:39;12.82;;;11.52;;
12958;SDS011;6544;51.666;6.634;2023-05-07T05:57:05;14.45;;;11.82;;
12958;SDS011;6544;51.666;6.634;2023-05-07T05:59:34;13.05;;;11.57;;
12958;SDS011;6544;51.666;6.634;2023-05-07T06:02:01;13.65;;;11.43;;
12958;SDS011;6544;51.666;6.634;2023-05-07T06:04:28;12.15;;;10.95;;
12958;SDS011;6544;51.666;6.634;2023-05-07T06:06:55;13.27;;;11.00;;
12958;SDS011;6544;51.666;6.634;2023-05-07T06:09:22;11.60;;;10.40;;
12958;SDS011;6544;51.666;6.634;2023-05-07T06:11:49;11.65;;;10.45;;
12958;SDS011;6544;51.666;6.634;2023-05-07T06:14:16;12.68;;;10.50;;
12958;SDS011;6544;51.666;6.634;2023-05-07T06:16:44;12.20;;;10.63;;
12958;SDS011;6544;51.666;6.634;2023-05-07T06:19:11;11.75;;;10.48;;
12958;SDS011;6544;51.666;6.634;2023-05-07T06:21:38;15.02;;;11.07;;
12958;SDS011;6544;51.666;6.634;2023-05-07T06:24:06;12.65;;;10.73;;
12958;SDS011;6544;51.666;6.634;2023-05-07T06:26:33;12.38;;;11.10;;
12958;SDS011;6544;51.666;6.634;2023-05-07T06:29:00;12.68;;;11.38;;
12958;SDS011;6544;51.666;6.634;2023-05-07T06:31:29;12.23;;;10.25;;
12958;SDS011;6544;51.666;6.634;2023-05-07T06:33:59;11.75;;;10.55;;
12958;SDS011;6544;51.666;6.634;2023-05-07T06:36:27;10.88;;;9.65;;
12958;SDS011;6544;51.666;6.634;2023-05-07T06:38:54;11.02;;;9.82;;
12958;SDS011;6544;51.666;6.634;2023-05-07T06:41:21;12.20;;;10.85;;
12958;SDS011;6544;51.666;6.634;2023-05-07T06:43:48;10.73;;;9.73;;
12958;SDS011;6544;51.666;6.634;2023-05-07T06:46:15;11.52;;;10.30;;
12958;SDS011;6544;51.666;6.634;2023-05-07T06:48:42;11.15;;;10.05;;
12958;SDS011;6544;51.666;6.634;2023-05-07T06:51:10;11.65;;;9.60;;
12958;SDS011;6544;51.666;6.634;2023-05-07T06:53:37;10.43;;;9.45;;
12958;SDS011;6544;51.666;6.634;2023-05-07T06:56:04;10.73;;;9.57;;
12958;SDS011;6544;51.666;6.634;2023-05-07T06:58:31;9.82;;;8.82;;
12958;SDS011;6544;51.666;6.634;2023-05-07T07:00:58;11.45;;;8.80;;
12958;SDS011;6544;51.666;6.634;2023-05-07T07:03:25;10.20;;;8.75;;
12958;SDS011;6544;51.666;6.634;2023-05-07T07:05:52;9.68;;;7.97;;
12958;SDS011;6544;51.666;6.634;2023-05-07T07:08:21;9.90;;;8.70;;
12958;SDS011;6544;51.666;6.634;2023-05-07T07:10:48;10.80;;;8.20;;
12958;SDS011;6544;51.666;6.634;2023-05-07T07:13:15;10.85;;;8.02;;
12958;SDS011;6544;51.666;6.634;2023-05-07T07:15:43;9.27;;;8.30;;
12958;SDS011;6544;51.666;6.634;2023-05-07T07:18:10;9.10;;;7.55;;
12958;SDS011;6544;51.666;6.634;2023-05-07T07:20:37;10.25;;;7.97;;
12958;SDS011;6544;51.666;6.634;2023-05-07T07:23:04;8.95;;;7.68;;
12958;SDS011;6544;51.666;6.634;2023-05-07T07:25:32;11.40;;;7.60;;
12958;SDS011;6544;51.666;6.634;2023-05-07T07:27:59;8.95;;;7.40;;
12958;SDS011;6544;51.666;6.634;2023-05-07T07:30:26;9.10;;;7.25;;
12958;SDS011;6544;51.666;6.634;2023-05-07T07:32:53;8.07;;;7.13;;
12958;SDS011;6544;51.666;6.634;2023-05-07T07:35:27;8.93;;;7.90;;
12958;SDS011;6544;51.666;6.634;2023-05-07T07:37:54;9.40;;;7.25;;
12958;SDS011;6544;51.666;6.634;2023-05-07T07:40:20;9.73;;;7.80;;
12958;SDS011;6544;51.666;6.634;2023-05-07T07:42:49;9.00;;;7.00;;
12958;SDS011;6544;51.666;6.634;2023-05-07T07:45:16;7.95;;;7.13;;
12958;SDS011;6544;51.666;6.634;2023-05-07T07:47:43;8.57;;;7.15;;
12958;SDS011;6544;51.666;6.634;2023-05-07T07:50:10;8.40;;;6.72;;
12958;SDS011;6544;51.666;6.634;2023-05-07T07:52:37;6.82;;;6.13;;
12958;SDS011;6544;51.666;6.634;2023-05-07T07:55:04;7.10;;;6.40;;
12958;SDS011;6544;51.666;6.634;2023-05-07T07:57:32;8.05;;;7.18;;
12958;SDS011;6544;51.666;6.634;2023-05-07T08:00:00;7.95;;;6.30;;
12958;SDS011;6544;51.666;6.634;2023-05-07T08:02:28;6.72;;;6.13;;
12958;SDS011;6544;51.666;6.634;2023-05-07T08:04:55;8.35;;;6.00;;
12958;SDS011;6544;51.666;6.634;2023-05-07T08:07:22;6.68;;;5.93;;
12958;SDS011;6544;51.666;6.634;2023-05-07T08:09:48;6.90;;;6.20;;
12958;SDS011;6544;51.666;6.634;2023-05-07T08:12:15;6.78;;;5.75;;
12958;SDS011;6544;51.666;6.634;2023-05-07T08:14:42;7.65;;;5.75;;
12958;SDS011;6544;51.666;6.634;2023-05-07T08:17:10;9.30;;;5.57;;
12958;SDS011;6544;51.666;6.634;2023-05-07T08:19:40;6.13;;;5.50;;
12958;SDS011;6544;51.666;6.634;2023-05-07T08:22:07;6.57;;;5.80;;
12958;SDS011;6544;51.666;6.634;2023-05-07T08:24:35;7.88;;;5.80;;
12958;SDS011;6544;51.666;6.634;2023-05-07T08:27:02;6.72;;;5.70;;
12958;SDS011;6544;51.666;6.634;2023-05-07T08:29:29;6.28;;;5.28;;
12958;SDS011;6544;51.666;6.634;2023-05-07T08:31:56;9.93;;;5.72;;
12958;SDS011;6544;51.666;6.634;2023-05-07T08:34:24;9.20;;;5.50;;
12958;SDS011;6544;51.666;6.634;2023-05-07T08:36:51;7.53;;;5.40;;
12958;SDS011;6544;51.666;6.634;2023-05-07T08:39:18;7.22;;;5.25;;
12958;SDS011;6544;51.666;6.634;2023-05-07T08:41:45;5.82;;;5.05;;
12958;SDS011;6544;51.666;6.634;2023-05-07T08:44:20;6.82;;;4.70;;
12958;SDS011;6544;51.666;6.634;2023-05-07T08:46:49;5.00;;;4.50;;
12958;SDS011;6544;51.666;6.634;2023-05-07T08:49:20;5.07;;;4.50;;
12958;SDS011;6544;51.666;6.634;2023-05-07T08:51:48;6.32;;;4.53;;
12958;SDS011;6544;51.666;6.634;2023-05-07T08:54:15;4.85;;;4.20;;
12958;SDS011;6544;51.666;6.634;2023-05-07T08:56:42;6.78;;;5.00;;
12958;SDS011;6544;51.666;6.634;2023-05-07T08:59:10;7.30;;;5.20;;
12958;SDS011;6544;51.666;6.634;2023-05-07T09:01:37;7.80;;;5.20;;
12958;SDS011;6544;51.666;6.634;2023-05-07T09:04:04;5.50;;;4.38;;
12958;SDS011;6544;51.666;6.634;2023-05-07T09:06:32;5.45;;;4.65;;
12958;SDS011;6544;51.666;6.634;2023-05-07T09:09:00;5.60;;;4.45;;
12958;SDS011;6544;51.666;6.634;2023-05-07T09:11:27;5.70;;;4.57;;
12958;SDS011;6544;51.666;6.634;2023-05-07T09:13:54;5.75;;;4.20;;
12958;SDS011;6544;51.666;6.634;2023-05-07T09:16:25;4.68;;;4.20;;
12958;SDS011;6544;51.666;6.634;2023-05-07T09:18:52;4.95;;;3.92;;
12958;SDS011;6544;51.666;6.634;2023-05-07T09:21:20;4.90;;;4.38;;
12958;SDS011;6544;51.666;6.634;2023-05-07T09:23:48;7.47;;;4.57;;
12958;SDS011;6544;51.666;6.634;2023-05-07T09:26:18;7.35;;;4.75;;
12958;SDS011;6544;51.666;6.634;2023-05-07T09:28:47;7.00;;;4.30;;
12958;SDS011;6544;51.666;6.634;2023-05-07T09:31:13;5.25;;;4.32;;
12958;SDS011;6544;51.666;6.634;2023-05-07T09:33:40;5.38;;;4.40;;
12958;SDS011;6544;51.666;6.634;2023-05-07T09:36:08;6.72;;;4.38;;
12958;SDS011;6544;51.666;6.634;2023-05-07T09:38:36;4.57;;;3.50;;
12958;SDS011;6544;51.666;6.634;2023-05-07T09:41:04;4.10;;;3.40;;
12958;SDS011;6544;51.666;6.634;2023-05-07T09:43:33;5.80;;;3.00;;
12958;SDS011;6544;51.666;6.634;2023-05-07T09:46:06;4.85;;;3.20;;
12958;SDS011;6544;51.666;6.634;2023-05-07T09:48:35;4.30;;;3.75;;
12958;SDS011;6544;51.666;6.634;2023-05-07T09:51:06;3.97;;;3.50;;
12958;SDS011;6544;51.666;6.634;2023-05-07T09:53:42;4.00;;;2.97;;
12958;SDS011;6544;51.666;6.634;2023-05-07T09:56:11;4.10;;;3.70;;
12958;SDS011;6544;51.666;6.634;2023-05-07T09:58:41;6.28;;;3.90;;
12958;SDS011;6544;51.666;6.634;2023-05-07T10:01:10;4.07;;;3.35;;
12958;SDS011;6544;51.666;6.634;2023-05-07T10:03:37;5.75;;;3.08;;
12958;SDS011;6544;51.666;6.634;2023-05-07T10:06:05;4.05;;;3.13;;
12958;SDS011;6544;51.666;6.634;2023-05-07T10:08:34;3.30;;;2.80;;
12958;SDS011;6544;51.666;6.634;2023-05-07T10:11:02;3.75;;;2.60;;
12958;SDS011;6544;51.666;6.634;2023-05-07T10:13:30;3.58;;;2.90;;
12958;SDS011;6544;51.666;6.634;2023-05-07T10:16:00;4.05;;;3.20;;
12958;SDS011;6544;51.666;6.634;2023-05-07T10:18:27;5.72;;;3.70;;
12958;SDS011;6544;51.666;6.634;2023-05-07T10:20:59;4.93;;;3.60;;
12958;SDS011;6544;51.666;6.634;2023-05-07T10:23:32;4.63;;;2.55;;
12958;SDS011;6544;51.666;6.634;2023-05-07T10:26:06;3.58;;;2.60;;
12958;SDS011;6544;51.666;6.634;2023-05-07T10:28:41;4.18;;;3.00;;
12958;SDS011;6544;51.666;6.634;2023-05-07T10:31:18;4.40;;;2.95;;
12958;SDS011;6544;51.666;6.634;2023-05-07T10:34:02;4.55;;;3.50;;
12958;SDS011;6544;51.666;6.634;2023-05-07T10:36:35;6.03;;;4.07;;
12958;SDS011;6544;51.666;6.634;2023-05-07T10:39:02;4.93;;;2.90;;
12958;SDS011;6544;51.666;6.634;2023-05-07T10:41:30;3.47;;;2.40;;
12958;SDS011;6544;51.666;6.634;2023-05-07T10:43:57;3.83;;;2.42;;
12958;SDS011;6544;51.666;6.634;2023-05-07T10:46:27;3.33;;;2.55;;
12958;SDS011;6544;51.666;6.634;2023-05-07T10:49:08;2.97;;;2.50;;
12958;SDS011;6544;51.666;6.634;2023-05-07T10:51:36;3.22;;;2.92;;
12958;SDS011;6544;51.666;6.634;2023-05-07T10:54:22;5.07;;;2.75;;
12958;SDS011;6544;51.666;6.634;2023-05-07T10:56:52;5.20;;;3.35;;
12958;SDS011;6544;51.666;6.634;2023-05-07T11:02:09;4.25;;;3.53;;
12958;SDS011;6544;51.666;6.634;2023-05-07T11:04:39;6.68;;;3.30;;
12958;SDS011;6544;51.666;6.634;2023-05-07T11:09:55;6.18;;;2.70;;
12958;SDS011;6544;51.666;6.634;2023-05-07T11:12:51;4.90;;;2.70;;
12958;SDS011;6544;51.666;6.634;2023-05-07T11:15:38;3.95;;;2.42;;
12958;SDS011;6544;51.666;6.634;2023-05-07T11:18:13;4.18;;;2.40;;
12958;SDS011;6544;51.666;6.634;2023-05-07T11:20:44;2.72;;;1.92;;
12958;SDS011;6544;51.666;6.634;2023-05-07T11:26:24;5.00;;;2.58;;
12958;SDS011;6544;51.666;6.634;2023-05-07T11:28:52;3.42;;;2.15;;
12958;SDS011;6544;51.666;6.634;2023-05-07T11:31:22;4.03;;;2.40;;
12958;SDS011;6544;51.666;6.634;2023-05-07T11:33:52;4.68;;;2.22;;
12958;SDS011;6544;51.666;6.634;2023-05-07T11:36:22;3.50;;;2.08;;
12958;SDS011;6544;51.666;6.634;2023-05-07T11:38:49;4.85;;;2.63;;
12958;SDS011;6544;51.666;6.634;2023-05-07T11:41:16;3.50;;;2.95;;
12958;SDS011;6544;51.666;6.634;2023-05-07T11:43:57;5.70;;;3.75;;
12958;SDS011;6544;51.666;6.634;2023-05-07T11:46:26;5.93;;;4.20;;
12958;SDS011;6544;51.666;6.634;2023-05-07T11:48:54;5.18;;;4.00;;
12958;SDS011;6544;51.666;6.634;2023-05-07T11:51:22;6.35;;;3.90;;
12958;SDS011;6544;51.666;6.634;2023-05-07T11:53:51;5.50;;;4.32;;
12958;SDS011;6544;51.666;6.634;2023-05-07T11:56:18;5.20;;;3.70;;
12958;SDS011;6544;51.666;6.634;2023-05-07T11:58:45;5.55;;;3.50;;
12958;SDS011;6544;51.666;6.634;2023-05-07T12:01:13;9.32;;;3.20;;
12958;SDS011;6544;51.666;6.634;2023-05-07T12:03:42;8.13;;;3.53;;
12958;SDS011;6544;51.666;6.634;2023-05-07T12:06:12;7.50;;;3.70;;
12958;SDS011;6544;51.666;6.634;2023-05-07T12:08:41;6.00;;;4.38;;
12958;SDS011;6544;51.666;6.634;2023-05-07T12:11:09;6.65;;;3.45;;
12958;SDS011;6544;51.666;6.634;2023-05-07T12:13:38;5.25;;;3.40;;
12958;SDS011;6544;51.666;6.634;2023-05-07T12:16:06;5.45;;;3.40;;
12958;SDS011;6544;51.666;6.634;2023-05-07T12:18:34;6.18;;;2.85;;
12958;SDS011;6544;51.666;6.634;2023-05-07T12:21:02;4.30;;;2.90;;
12958;SDS011;6544;51.666;6.634;2023-05-07T12:23:32;6.03;;;3.22;;
12958;SDS011;6544;51.666;6.634;2023-05-07T12:26:00;4.07;;;2.38;;
12958;SDS011;6544;51.666;6.634;2023-05-07T12:28:27;4.78;;;3.30;;
12958;SDS011;6544;51.666;6.634;2023-05-07T12:30:55;4.63;;;3.00;;
12958;SDS011;6544;51.666;6.634;2023-05-07T12:33:26;4.80;;;2.88;;
12958;SDS011;6544;51.666;6.634;2023-05-07T12:35:54;3.90;;;2.90;;
12958;SDS011;6544;51.666;6.634;2023-05-07T12:38:21;4.50;;;3.65;;
12958;SDS011;6544;51.666;6.634;2023-05-07T12:40:50;5.30;;;2.83;;
12958;SDS011;6544;51.666;6.634;2023-05-07T12:43:21;4.03;;;3.17;;
12958;SDS011;6544;51.666;6.634;2023-05-07T12:45:50;4.65;;;2.90;;
12958;SDS011;6544;51.666;6.634;2023-05-07T12:48:19;5.90;;;3.13;;
12958;SDS011;6544;51.666;6.634;2023-05-07T12:50:48;5.25;;;3.30;;
12958;SDS011;6544;51.666;6.634;2023-05-07T12:53:16;7.25;;;3.55;;
12958;SDS011;6544;51.666;6.634;2023-05-07T12:55:43;7.40;;;3.10;;
12958;SDS011;6544;51.666;6.634;2023-05-07T12:58:17;4.35;;;2.83;;
12958;SDS011;6544;51.666;6.634;2023-05-07T13:00:46;4.07;;;2.90;;
12958;SDS011;6544;51.666;6.634;2023-05-07T13:03:20;5.22;;;3.30;;
12958;SDS011;6544;51.666;6.634;2023-05-07T13:05:49;5.68;;;3.22;;
12958;SDS011;6544;51.666;6.634;2023-05-07T13:08:26;4.10;;;2.53;;
12958;SDS011;6544;51.666;6.634;2023-05-07T13:10:54;5.22;;;3.50;;
12958;SDS011;6544;51.666;6.634;2023-05-07T13:13:23;4.55;;;3.00;;
12958;SDS011;6544;51.666;6.634;2023-05-07T13:15:50;6.40;;;3.15;;
12958;SDS011;6544;51.666;6.634;2023-05-07T13:18:17;5.28;;;3.30;;
12958;SDS011;6544;51.666;6.634;2023-05-07T13:20:44;6.93;;;3.10;;
12958;SDS011;6544;51.666;6.634;2023-05-07T13:23:11;5.95;;;3.08;;
12958;SDS011;6544;51.666;6.634;2023-05-07T13:25:38;5.78;;;3.47;;
12958;SDS011;6544;51.666;6.634;2023-05-07T13:28:05;5.78;;;3.45;;
12958;SDS011;6544;51.666;6.634;2023-05-07T13:30:33;6.35;;;3.63;;
12958;SDS011;6544;51.666;6.634;2023-05-07T13:33:00;6.28;;;3.47;;
12958;SDS011;6544;51.666;6.634;2023-05-07T13:35:27;5.97;;;3.40;;
12958;SDS011;6544;51.666;6.634;2023-05-07T13:37:54;5.18;;;3.80;;
12958;SDS011;6544;51.666;6.634;2023-05-07T13:40:21;7.28;;;3.63;;
12958;SDS011;6544;51.666;6.634;2023-05-07T13:42:48;5.60;;;3.58;;
12958;SDS011;6544;51.666;6.634;2023-05-07T13:45:15;6.30;;;3.40;;
12958;SDS011;6544;51.666;6.634;2023-05-07T13:47:43;7.70;;;3.50;;
12958;SDS011;6544;51.666;6.634;2023-05-07T13:50:11;5.57;;;4.28;;
12958;SDS011;6544;51.666;6.634;2023-05-07T13:52:40;4.68;;;3.47;;
12958;SDS011;6544;51.666;6.634;2023-05-07T13:55:08;7.60;;;4.18;;
12958;SDS011;6544;51.666;6.634;2023-05-07T13:57:36;6.40;;;4.50;;
12958;SDS011;6544;51.666;6.634;2023-05-07T14:00:03;5.07;;;3.97;;
12958;SDS011;6544;51.666;6.634;2023-05-07T14:02:31;4.90;;;3.80;;
12958;SDS011;6544;51.666;6.634;2023-05-07T14:04:59;5.43;;;4.10;;
12958;SDS011;6544;51.666;6.634;2023-05-07T14:07:26;6.40;;;5.00;;
12958;SDS011;6544;51.666;6.634;2023-05-07T14:09:53;6.97;;;4.00;;
12958;SDS011;6544;51.666;6.634;2023-05-07T14:12:20;5.57;;;4.50;;
12958;SDS011;6544;51.666;6.634;2023-05-07T14:14:47;5.65;;;3.72;;
12958;SDS011;6544;51.666;6.634;2023-05-07T14:17:15;6.45;;;4.35;;
12958;SDS011;6544;51.666;6.634;2023-05-07T14:19:42;6.30;;;4.20;;
12958;SDS011;6544;51.666;6.634;2023-05-07T14:22:10;5.72;;;4.15;;
12958;SDS011;6544;51.666;6.634;2023-05-07T14:24:39;6.15;;;4.07;;
12958;SDS011;6544;51.666;6.634;2023-05-07T14:27:06;8.13;;;4.63;;
12958;SDS011;6544;51.666;6.634;2023-05-07T14:29:33;10.80;;;6.00;;
12958;SDS011;6544;51.666;6.634;2023-05-07T14:32:00;6.18;;;5.07;;
12958;SDS011;6544;51.666;6.634;2023-05-07T14:34:28;8.98;;;4.70;;
12958;SDS011;6544;51.666;6.634;2023-05-07T14:36:55;6.65;;;5.00;;
12958;SDS011;6544;51.666;6.634;2023-05-07T14:39:23;7.15;;;4.30;;
12958;SDS011;6544;51.666;6.634;2023-05-07T14:41:50;7.45;;;4.85;;
12958;SDS011;6544;51.666;6.634;2023-05-07T14:44:19;7.25;;;5.57;;
12958;SDS011;6544;51.666;6.634;2023-05-07T14:46:46;6.32;;;4.82;;
12958;SDS011;6544;51.666;6.634;2023-05-07T14:49:13;7.95;;;4.72;;
12958;SDS011;6544;51.666;6.634;2023-05-07T14:51:42;7.22;;;5.43;;
12958;SDS011;6544;51.666;6.634;2023-05-07T14:54:10;6.90;;;5.32;;
12958;SDS011;6544;51.666;6.634;2023-05-07T14:56:38;5.95;;;4.72;;
12958;SDS011;6544;51.666;6.634;2023-05-07T14:59:05;8.75;;;5.68;;
12958;SDS011;6544;51.666;6.634;2023-05-07T15:01:33;6.32;;;5.05;;
12958;SDS011;6544;51.666;6.634;2023-05-07T15:04:00;8.20;;;5.35;;
12958;SDS011;6544;51.666;6.634;2023-05-07T15:06:28;5.60;;;4.43;;
12958;SDS011;6544;51.666;6.634;2023-05-07T15:08:55;5.75;;;5.15;;